createdAt,value
2018-03-24T00:00:55.751Z,12.63
2018-03-24T00:03:23.302Z,15.13
2018-03-24T00:05:50.722Z,11.83
2018-03-24T00:08:18.958Z,12.73
2018-03-24T00:10:46.416Z,13.53
2018-03-24T00:13:13.879Z,13.53
2018-03-24T00:15:41.335Z,13.00
2018-03-24T00:18:08.775Z,13.43
2018-03-24T00:20:36.268Z,12.07
2018-03-24T00:23:03.731Z,13.03
2018-03-24T00:25:31.168Z,10.87
2018-03-24T00:27:59.578Z,12.63
2018-03-24T00:30:27.123Z,11.33
2018-03-24T00:32:54.583Z,11.27
2018-03-24T00:35:22.023Z,10.30
2018-03-24T00:37:49.512Z,9.87
2018-03-24T00:40:16.981Z,10.73
2018-03-24T00:42:44.450Z,11.27
2018-03-24T00:45:12.000Z,11.13
2018-03-24T00:47:39.538Z,10.90
2018-03-24T00:50:06.968Z,11.40
2018-03-24T00:52:35.185Z,11.10
2018-03-24T00:55:02.619Z,9.97
2018-03-24T00:57:30.830Z,9.97
2018-03-24T00:59:58.259Z,10.23
2018-03-24T01:02:26.471Z,9.90
2018-03-24T01:04:53.920Z,10.67
2018-03-24T01:07:21.377Z,10.27
2018-03-24T01:09:48.883Z,10.63
2018-03-24T01:12:16.328Z,10.77
2018-03-24T01:14:43.774Z,9.83
2018-03-24T01:17:11.240Z,10.40
2018-03-24T01:19:38.684Z,10.77
2018-03-24T01:22:06.132Z,10.70
2018-03-24T01:24:33.572Z,9.80
2018-03-24T01:27:01.803Z,10.00
2018-03-24T01:29:29.245Z,11.10
2018-03-24T01:31:56.671Z,11.53
2018-03-24T01:34:24.887Z,10.83
2018-03-24T01:36:52.371Z,10.73
2018-03-24T01:39:19.836Z,10.77
2018-03-24T01:41:47.373Z,11.80
2018-03-24T01:44:14.864Z,10.50
2018-03-24T01:46:42.299Z,10.33
2018-03-24T01:49:09.746Z,11.03
2018-03-24T01:51:37.243Z,11.50
2018-03-24T01:54:04.708Z,10.77
2018-03-24T01:56:32.146Z,10.57
2018-03-24T01:58:59.609Z,9.47
2018-03-24T02:01:27.053Z,12.47
2018-03-24T02:03:54.560Z,10.30
2018-03-24T02:06:22.005Z,11.20
2018-03-24T02:08:49.448Z,10.83
2018-03-24T02:11:16.892Z,11.40
2018-03-24T02:13:45.104Z,11.00
2018-03-24T02:16:12.547Z,11.03
2018-03-24T02:18:40.532Z,9.00
2018-03-24T02:21:12.624Z,9.47
2018-03-24T02:23:40.071Z,10.43
2018-03-24T02:26:07.519Z,10.30
2018-03-24T02:28:34.966Z,11.07
2018-03-24T02:31:02.399Z,10.47
2018-03-24T02:33:30.601Z,9.90
2018-03-24T02:35:58.060Z,10.10
2018-03-24T02:38:26.261Z,11.07
2018-03-24T02:40:53.703Z,9.90
2018-03-24T02:43:21.139Z,9.97
2018-03-24T02:45:49.387Z,11.13
2018-03-24T02:48:16.848Z,11.53
2018-03-24T02:50:44.312Z,11.47
2018-03-24T02:53:11.756Z,10.77
2018-03-24T02:55:39.226Z,10.10
2018-03-24T02:58:06.693Z,10.03
2018-03-24T03:00:34.145Z,10.50
2018-03-24T03:03:01.608Z,10.67
2018-03-24T03:05:29.048Z,10.00
2018-03-24T03:07:56.528Z,9.57
2018-03-24T03:10:23.988Z,10.63
2018-03-24T03:12:51.440Z,10.03
2018-03-24T03:15:18.917Z,10.13
2018-03-24T03:17:46.355Z,11.30
2018-03-24T03:20:13.788Z,10.67
2018-03-24T03:22:41.996Z,10.33
2018-03-24T03:25:09.449Z,9.70
2018-03-24T03:27:36.932Z,10.27
2018-03-24T03:30:04.364Z,10.83
2018-03-24T03:32:31.812Z,10.60
2018-03-24T03:35:00.057Z,10.27
2018-03-24T03:37:27.499Z,9.90
2018-03-24T03:39:54.937Z,11.53
2018-03-24T03:42:22.429Z,9.47
2018-03-24T03:44:49.887Z,10.30
2018-03-24T03:47:17.324Z,8.40
2018-03-24T03:49:44.799Z,9.67
2018-03-24T03:52:12.268Z,9.70
2018-03-24T03:54:39.708Z,9.63
2018-03-24T03:57:07.135Z,10.50
2018-03-24T03:59:35.371Z,10.13
2018-03-24T04:02:02.808Z,9.60
2018-03-24T04:04:30.264Z,8.93
2018-03-24T04:06:57.751Z,10.17
2018-03-24T04:09:25.199Z,10.67
2018-03-24T04:11:52.729Z,11.67
2018-03-24T04:14:20.940Z,8.97
2018-03-24T04:16:48.363Z,9.33
2018-03-24T04:19:16.575Z,10.20
2018-03-24T04:21:44.024Z,10.27
2018-03-24T04:24:11.451Z,10.17
2018-03-24T04:26:38.976Z,10.23
2018-03-24T04:29:06.448Z,10.70
2018-03-24T04:31:33.893Z,8.63
2018-03-24T04:34:01.325Z,10.33
2018-03-24T04:36:28.765Z,9.90
2018-03-24T04:38:56.980Z,11.13
2018-03-24T04:41:24.463Z,8.00
2018-03-24T04:43:52.165Z,10.33
2018-03-24T04:46:19.604Z,9.33
2018-03-24T04:48:47.067Z,9.97
2018-03-24T04:51:14.589Z,10.83
2018-03-24T04:53:42.804Z,9.23
2018-03-24T04:56:10.356Z,10.53
2018-03-24T04:58:37.815Z,9.30
2018-03-24T05:01:05.283Z,10.20
2018-03-24T05:03:32.719Z,10.97
2018-03-24T05:06:00.172Z,10.20
2018-03-24T05:08:27.663Z,10.40
2018-03-24T05:10:55.096Z,9.80
2018-03-24T05:13:22.560Z,10.43
2018-03-24T05:15:49.999Z,10.17
2018-03-24T05:18:18.203Z,9.80
2018-03-24T05:20:45.660Z,10.70
2018-03-24T05:23:13.153Z,10.43
2018-03-24T05:25:40.604Z,10.60
2018-03-24T05:28:08.071Z,11.33
2018-03-24T05:30:35.549Z,10.00
2018-03-24T05:33:02.995Z,10.47
2018-03-24T05:35:30.456Z,10.90
2018-03-24T05:37:57.930Z,10.07
2018-03-24T05:40:25.395Z,10.17
2018-03-24T05:42:52.939Z,10.53
2018-03-24T05:45:20.396Z,12.00
2018-03-24T05:47:47.882Z,9.50
2018-03-24T05:50:15.332Z,11.00
2018-03-24T05:52:42.767Z,10.63
2018-03-24T05:55:10.329Z,10.70
2018-03-24T05:57:37.788Z,10.60
2018-03-24T06:00:05.241Z,10.73
2018-03-24T06:02:32.733Z,10.80
2018-03-24T06:05:00.195Z,10.13
2018-03-24T06:07:27.644Z,10.87
2018-03-24T06:09:55.092Z,9.60
2018-03-24T06:12:22.544Z,10.97
2018-03-24T06:14:49.992Z,11.43
2018-03-24T06:17:18.200Z,9.73
2018-03-24T06:19:45.643Z,10.73
2018-03-24T06:22:13.158Z,10.20
2018-03-24T06:24:40.607Z,10.67
2018-03-24T06:27:08.066Z,9.83
2018-03-24T06:29:35.514Z,11.60
2018-03-24T06:32:02.957Z,10.10
2018-03-24T06:34:30.391Z,10.70
2018-03-24T06:37:08.496Z,10.83
2018-03-24T06:39:36.808Z,9.63
2018-03-24T06:42:04.247Z,11.23
2018-03-24T06:44:32.456Z,12.33
2018-03-24T06:46:59.944Z,12.57
2018-03-24T06:49:27.387Z,12.80
2018-03-24T06:51:54.825Z,11.83
2018-03-24T06:54:22.267Z,12.00
2018-03-24T06:56:50.504Z,11.83
2018-03-24T06:59:17.949Z,11.10
2018-03-24T07:01:45.424Z,12.37
2018-03-24T07:04:12.872Z,11.37
2018-03-24T07:06:40.339Z,10.43
2018-03-24T07:09:07.791Z,10.13
2018-03-24T07:11:35.238Z,11.13
2018-03-24T07:14:02.733Z,11.90
2018-03-24T07:16:30.196Z,11.27
2018-03-24T07:18:57.727Z,12.60
2018-03-24T07:21:25.215Z,11.00
2018-03-24T07:23:52.661Z,11.80
2018-03-24T07:26:20.108Z,10.87
2018-03-24T07:28:47.551Z,11.40
2018-03-24T07:31:15.776Z,11.13
2018-03-24T07:33:43.220Z,10.17
2018-03-24T07:36:10.680Z,10.80
2018-03-24T07:38:38.189Z,10.90
2018-03-24T07:41:05.650Z,9.83
2018-03-24T07:43:33.079Z,11.13
2018-03-24T07:46:00.525Z,10.87
2018-03-24T07:48:27.982Z,10.20
2018-03-24T07:50:55.463Z,11.30
2018-03-24T07:53:22.916Z,10.27
2018-03-24T07:55:50.355Z,11.20
2018-03-24T07:58:17.847Z,10.23
2018-03-24T08:00:45.311Z,11.60
2018-03-24T08:03:12.766Z,10.97
2018-03-24T08:05:40.205Z,11.67
2018-03-24T08:08:07.648Z,10.23
2018-03-24T08:10:35.848Z,11.50
2018-03-24T08:13:03.331Z,11.60
2018-03-24T08:15:30.776Z,11.73
2018-03-24T08:17:58.215Z,10.80
2018-03-24T08:20:25.693Z,11.53
2018-03-24T08:22:53.136Z,11.57
2018-03-24T08:25:21.370Z,11.10
2018-03-24T08:27:48.830Z,11.53
2018-03-24T08:30:23.223Z,11.87
2018-03-24T08:32:51.420Z,11.93
2018-03-24T08:35:18.860Z,11.97
2018-03-24T08:37:46.300Z,12.63
2018-03-24T08:40:13.755Z,13.50
2018-03-24T08:42:41.966Z,12.80
2018-03-24T08:45:09.524Z,13.00
2018-03-24T08:47:37.020Z,12.87
2018-03-24T08:50:04.604Z,12.93
2018-03-24T08:52:32.014Z,11.80
2018-03-24T08:54:59.492Z,13.03
2018-03-24T08:57:26.931Z,12.63
2018-03-24T08:59:54.388Z,12.57
2018-03-24T09:02:21.890Z,12.77
2018-03-24T09:04:49.335Z,12.73
2018-03-24T09:07:16.775Z,13.57
2018-03-24T09:09:44.233Z,13.07
2018-03-24T09:12:11.727Z,12.53
2018-03-24T09:14:39.167Z,12.67
2018-03-24T09:17:06.607Z,13.63
2018-03-24T09:19:34.060Z,13.43
2018-03-24T09:22:02.292Z,13.63
2018-03-24T09:24:29.764Z,13.23
2018-03-24T09:26:57.217Z,12.93
2018-03-24T09:29:24.781Z,13.03
2018-03-24T09:31:52.231Z,12.77
2018-03-24T09:34:19.693Z,13.17
2018-03-24T09:36:47.164Z,12.27
2018-03-24T09:39:14.631Z,14.07
2018-03-24T09:41:42.090Z,13.07
2018-03-24T09:44:09.551Z,12.27
2018-03-24T09:46:37.001Z,12.23
2018-03-24T09:49:04.473Z,12.10
2018-03-24T09:51:32.941Z,12.33
2018-03-24T09:54:00.389Z,11.13
2018-03-24T09:56:27.844Z,11.57
2018-03-24T09:58:55.300Z,10.87
2018-03-24T10:01:23.076Z,11.83
2018-03-24T10:03:50.522Z,11.53
2018-03-24T10:06:17.968Z,10.53
2018-03-24T10:08:46.181Z,9.80
2018-03-24T10:11:13.645Z,11.13
2018-03-24T10:13:41.084Z,12.03
2018-03-24T10:16:08.546Z,11.10
2018-03-24T10:18:36.742Z,12.27
2018-03-24T10:24:23.512Z,12.50
2018-03-24T10:26:51.728Z,12.33
2018-03-24T10:29:19.173Z,12.10
2018-03-24T10:31:46.619Z,12.40
2018-03-24T10:34:14.836Z,11.73
2018-03-24T10:36:42.287Z,12.63
2018-03-24T10:39:09.723Z,9.70
2018-03-24T10:41:37.945Z,9.67
2018-03-24T10:44:05.372Z,8.47
2018-03-24T10:46:32.821Z,8.70
2018-03-24T10:49:01.029Z,8.13
2018-03-24T10:51:29.263Z,8.87
2018-03-24T10:53:57.583Z,8.27
2018-03-24T10:56:25.044Z,9.00
2018-03-24T10:58:52.528Z,9.27
2018-03-24T11:01:25.490Z,9.43
2018-03-24T11:03:52.919Z,9.37
2018-03-24T11:06:21.162Z,9.10
2018-03-24T11:08:48.624Z,8.80
2018-03-24T11:11:16.076Z,9.97
2018-03-24T11:13:43.535Z,9.40
2018-03-24T11:16:10.984Z,8.90
2018-03-24T11:18:38.431Z,9.27
2018-03-24T11:21:05.877Z,10.23
2018-03-24T11:23:34.105Z,10.17
2018-03-24T11:26:01.547Z,9.20
2018-03-24T11:28:28.986Z,8.80
2018-03-24T11:30:56.427Z,9.40
2018-03-24T11:33:24.639Z,8.50
2018-03-24T11:35:52.114Z,9.20
2018-03-24T11:38:19.555Z,9.73
2018-03-24T11:40:47.008Z,9.80
2018-03-24T11:43:15.212Z,10.20
2018-03-24T11:45:42.666Z,10.07
2018-03-24T11:48:10.104Z,9.73
2018-03-24T11:50:38.315Z,10.03
2018-03-24T11:53:05.809Z,10.07
2018-03-24T11:55:33.839Z,8.33
2018-03-24T11:58:01.341Z,8.20
2018-03-24T12:00:28.901Z,8.37
2018-03-24T12:02:56.388Z,8.30
2018-03-24T12:05:23.842Z,8.23
2018-03-24T12:07:51.300Z,8.90
2018-03-24T12:10:18.844Z,8.30
2018-03-24T12:12:46.306Z,9.23
2018-03-24T12:15:13.740Z,8.23
2018-03-24T12:17:41.236Z,9.60
2018-03-24T12:20:08.694Z,8.17
2018-03-24T12:22:36.164Z,10.33
2018-03-24T12:25:03.609Z,9.90
2018-03-24T12:27:31.056Z,10.50
2018-03-24T12:29:58.536Z,9.50
2018-03-24T12:32:26.100Z,9.27
2018-03-24T12:34:53.580Z,10.10
2018-03-24T12:37:21.120Z,9.50
2018-03-24T12:39:48.575Z,9.03
2018-03-24T12:42:16.025Z,8.27
2018-03-24T12:44:43.464Z,9.30
2018-03-24T12:47:10.919Z,8.47
2018-03-24T12:49:39.152Z,9.20
2018-03-24T12:52:06.607Z,9.30
2018-03-24T12:54:34.063Z,8.97
2018-03-24T12:57:01.532Z,8.40
2018-03-24T12:59:28.987Z,8.13
2018-03-24T13:01:56.431Z,7.70
2018-03-24T13:04:23.880Z,6.50
2018-03-24T13:06:51.339Z,7.67
2018-03-24T13:09:18.840Z,8.10
2018-03-24T13:11:46.287Z,7.20
2018-03-24T13:14:13.751Z,7.13
2018-03-24T13:16:41.209Z,8.27
2018-03-24T13:19:08.656Z,8.03
2018-03-24T13:21:36.109Z,8.40
2018-03-24T13:24:04.527Z,8.20
2018-03-24T13:26:32.916Z,9.10
2018-03-24T13:29:00.371Z,8.27
2018-03-24T13:31:27.927Z,6.80
2018-03-24T13:33:55.398Z,5.93
2018-03-24T13:36:22.828Z,7.00
2018-03-24T13:38:51.410Z,6.67
2018-03-24T13:41:19.111Z,6.50
2018-03-24T13:43:46.579Z,6.73
2018-03-24T13:46:14.054Z,6.43
2018-03-24T13:48:41.504Z,6.13
2018-03-24T13:51:08.947Z,6.37
2018-03-24T13:53:36.424Z,6.87
2018-03-24T13:56:03.878Z,6.80
2018-03-24T13:58:31.322Z,6.87
2018-03-24T14:00:58.803Z,6.63
2018-03-24T14:03:26.259Z,6.10
2018-03-24T14:05:53.728Z,5.97
2018-03-24T14:08:21.176Z,6.17
2018-03-24T14:10:48.617Z,6.17
2018-03-24T14:13:16.100Z,6.63
2018-03-24T14:15:43.539Z,5.60
2018-03-24T14:18:10.976Z,5.83
2018-03-24T14:20:39.179Z,6.40
2018-03-24T14:23:06.650Z,5.30
2018-03-24T14:25:34.079Z,6.13
2018-03-24T14:28:02.309Z,6.47
2018-03-24T14:30:29.744Z,6.17
2018-03-24T14:32:57.201Z,6.00
2018-03-24T14:35:24.700Z,5.77
2018-03-24T14:37:52.161Z,5.97
2018-03-24T14:40:19.719Z,5.43
2018-03-24T14:42:47.200Z,5.80
2018-03-24T14:45:14.629Z,5.67
2018-03-24T14:47:42.105Z,6.23
2018-03-24T14:50:09.638Z,5.63
2018-03-24T14:52:37.129Z,6.00
2018-03-24T14:55:04.581Z,5.67
2018-03-24T14:57:32.021Z,6.00
2018-03-24T14:59:59.513Z,6.00
2018-03-24T15:02:26.951Z,6.00
2018-03-24T15:04:54.431Z,6.27
2018-03-24T15:07:21.901Z,6.00
2018-03-24T15:09:49.367Z,6.63
2018-03-24T15:12:16.819Z,5.90
2018-03-24T15:14:44.260Z,6.50
2018-03-24T15:17:11.710Z,7.30
2018-03-24T15:19:39.208Z,7.03
2018-03-24T15:22:06.660Z,8.13
2018-03-24T15:24:34.103Z,8.43
2018-03-24T15:27:01.563Z,8.10
2018-03-24T15:29:40.971Z,9.20
2018-03-24T15:32:21.247Z,8.67
2018-03-24T15:35:00.499Z,9.30
2018-03-24T15:37:28.090Z,9.03
2018-03-24T15:39:55.645Z,9.43
2018-03-24T15:42:23.077Z,8.70
2018-03-24T15:44:50.528Z,8.67
2018-03-24T15:47:18.016Z,8.17
2018-03-24T15:49:45.481Z,10.93
2018-03-24T15:52:12.940Z,12.90
2018-03-24T15:54:40.401Z,8.80
2018-03-24T15:57:07.845Z,11.50
2018-03-24T15:59:35.306Z,8.53
2018-03-24T16:02:02.765Z,7.70
2018-03-24T16:04:30.220Z,8.60
2018-03-24T16:06:57.705Z,8.20
2018-03-24T16:09:25.245Z,8.57
2018-03-24T16:11:52.668Z,8.17
2018-03-24T16:14:20.916Z,9.20
2018-03-24T16:16:48.357Z,8.23
2018-03-24T16:19:15.831Z,6.90
2018-03-24T16:21:43.287Z,8.13
2018-03-24T16:24:10.735Z,7.57
2018-03-24T16:26:39.299Z,8.07
2018-03-24T16:29:06.743Z,8.90
2018-03-24T16:31:34.947Z,7.87
2018-03-24T16:34:02.399Z,10.67
2018-03-24T16:36:29.839Z,8.43
2018-03-24T16:38:57.291Z,8.43
2018-03-24T16:41:24.741Z,7.73
2018-03-24T16:43:52.192Z,7.40
2018-03-24T16:46:20.396Z,7.63
2018-03-24T16:48:47.835Z,7.10
2018-03-24T16:51:15.286Z,7.63
2018-03-24T16:53:43.487Z,6.27
2018-03-24T16:56:10.924Z,7.10
2018-03-24T16:58:39.131Z,8.10
2018-03-24T17:01:06.983Z,7.83
2018-03-24T17:03:35.264Z,8.50
2018-03-24T17:06:02.711Z,10.83
2018-03-24T17:08:30.163Z,9.60
2018-03-24T17:10:57.635Z,9.50
2018-03-24T17:13:25.115Z,9.87
2018-03-24T17:15:52.663Z,11.30
2018-03-24T17:18:20.237Z,11.73
2018-03-24T17:20:47.695Z,8.33
2018-03-24T17:23:15.132Z,8.73
2018-03-24T17:25:42.580Z,7.80
2018-03-24T17:28:10.020Z,8.30
2018-03-24T17:30:38.232Z,8.37
2018-03-24T17:33:05.667Z,10.30
2018-03-24T17:35:33.894Z,19.33
2018-03-24T17:38:01.430Z,11.97
2018-03-24T17:40:28.917Z,10.60
2018-03-24T17:42:56.352Z,10.27
2018-03-24T17:45:23.808Z,11.13
2018-03-24T17:47:51.243Z,19.37
2018-03-24T17:50:19.483Z,19.20
2018-03-24T17:52:46.925Z,16.30
2018-03-24T17:55:14.404Z,19.50
2018-03-24T17:57:41.859Z,17.00
2018-03-24T18:00:09.302Z,17.20
2018-03-24T18:02:36.792Z,24.03
2018-03-24T18:05:04.240Z,27.70
2018-03-24T18:07:31.686Z,15.60
2018-03-24T18:09:59.130Z,11.80
2018-03-24T18:12:26.563Z,12.23
2018-03-24T18:14:54.011Z,10.80
2018-03-24T18:17:21.453Z,11.60
2018-03-24T18:19:48.891Z,11.40
2018-03-24T18:22:16.329Z,10.63
2018-03-24T18:24:43.772Z,8.80
2018-03-24T18:27:11.989Z,9.50
2018-03-24T18:29:39.579Z,13.23
2018-03-24T18:32:07.116Z,10.50
2018-03-24T18:34:34.544Z,9.23
2018-03-24T18:37:02.760Z,9.83
2018-03-24T18:39:30.221Z,9.37
2018-03-24T18:41:57.665Z,10.33
2018-03-24T18:44:25.909Z,11.10
2018-03-24T18:46:53.405Z,12.63
2018-03-24T18:49:20.808Z,10.53
2018-03-24T18:51:48.244Z,9.70
2018-03-24T18:54:15.676Z,10.83
2018-03-24T18:56:43.907Z,12.40
2018-03-24T18:59:11.368Z,13.07
2018-03-24T19:01:38.837Z,13.93
2018-03-24T19:04:06.295Z,14.00
2018-03-24T19:06:34.134Z,14.27
2018-03-24T19:09:01.626Z,16.93
2018-03-24T19:11:29.086Z,17.23
2018-03-24T19:13:56.520Z,16.43
2018-03-24T19:16:24.009Z,15.73
2018-03-24T19:18:51.562Z,15.70
2018-03-24T19:21:18.999Z,14.07
2018-03-24T19:23:46.467Z,14.37
2018-03-24T19:26:13.902Z,14.10
2018-03-24T19:28:42.142Z,12.67
2018-03-24T19:31:09.612Z,14.87
2018-03-24T19:33:37.043Z,15.30
2018-03-24T19:36:04.492Z,15.10
2018-03-24T19:38:31.928Z,15.40
2018-03-24T19:41:00.163Z,16.90
2018-03-24T19:43:27.601Z,16.23
2018-03-24T19:45:55.087Z,17.77
2018-03-24T19:48:22.616Z,17.10
2018-03-24T19:50:50.107Z,17.60
2018-03-24T19:53:17.568Z,18.23
2018-03-24T19:55:45.038Z,17.13
2018-03-24T19:58:12.474Z,19.00
2018-03-24T20:00:39.912Z,17.67
2018-03-24T20:03:07.347Z,18.00
2018-03-24T20:05:35.613Z,17.03
2018-03-24T20:08:03.061Z,16.33
2018-03-24T20:10:30.528Z,18.50
2018-03-24T20:12:58.052Z,16.63
2018-03-24T20:15:25.628Z,17.40
2018-03-24T20:17:53.113Z,17.57
2018-03-24T20:20:20.652Z,18.70
2018-03-24T20:22:48.108Z,17.47
2018-03-24T20:25:15.536Z,19.30
2018-03-24T20:27:43.769Z,20.37
2018-03-24T20:30:11.216Z,20.80
2018-03-24T20:32:38.693Z,22.23
2018-03-24T20:35:06.142Z,21.73
2018-03-24T20:37:33.688Z,21.87
2018-03-24T20:40:01.289Z,24.00
2018-03-24T20:42:28.737Z,22.50
2018-03-24T20:44:56.192Z,21.47
2018-03-24T20:47:23.638Z,21.10
2018-03-24T20:49:51.076Z,20.50
2018-03-24T20:52:19.295Z,22.40
2018-03-24T20:54:46.758Z,21.40
2018-03-24T20:57:14.219Z,21.30
2018-03-24T20:59:41.665Z,21.30
2018-03-24T21:02:09.143Z,24.50
2018-03-24T21:04:36.686Z,21.07
2018-03-24T21:07:04.179Z,21.60
2018-03-24T21:09:31.616Z,21.03
2018-03-24T21:11:59.079Z,19.53
2018-03-24T21:14:26.541Z,21.57
2018-03-24T21:16:54.001Z,20.13
2018-03-24T21:19:21.428Z,19.17
2018-03-24T21:21:49.734Z,20.90
2018-03-24T21:24:17.194Z,17.03
2018-03-24T21:26:44.631Z,16.87
2018-03-24T21:29:12.840Z,18.67
2018-03-24T21:31:40.279Z,18.13
2018-03-24T21:34:07.838Z,17.00
2018-03-24T21:36:35.364Z,17.37
2018-03-24T21:39:02.803Z,17.73
2018-03-24T21:41:30.283Z,15.00
2018-03-24T21:43:57.741Z,14.30
2018-03-24T21:46:25.198Z,15.00
2018-03-24T21:48:52.635Z,15.40
2018-03-24T21:51:20.116Z,15.47
2018-03-24T21:53:47.554Z,14.50
2018-03-24T21:56:15.020Z,14.10
2018-03-24T21:58:42.465Z,13.97
2018-03-24T22:01:09.907Z,13.60
2018-03-24T22:03:38.241Z,15.63
2018-03-24T22:06:05.668Z,14.70
2018-03-24T22:08:33.160Z,14.60
2018-03-24T22:11:00.702Z,15.40
2018-03-24T22:13:28.267Z,14.03
2018-03-24T22:15:55.758Z,15.20
2018-03-24T22:18:23.216Z,15.30
2018-03-24T22:20:50.730Z,15.40
2018-03-24T22:23:19.033Z,16.00
2018-03-24T22:25:46.525Z,15.20
2018-03-24T22:28:13.984Z,15.47
2018-03-24T22:30:41.443Z,14.73
2018-03-24T22:33:08.891Z,14.83
2018-03-24T22:35:36.373Z,15.40
2018-03-24T22:38:03.811Z,14.27
2018-03-24T22:40:31.252Z,14.23
2018-03-24T22:42:58.701Z,14.10
2018-03-24T22:45:26.132Z,13.73
2018-03-24T22:47:53.571Z,15.23
2018-03-24T22:50:21.099Z,13.80
2018-03-24T22:52:48.691Z,16.13
2018-03-24T22:55:16.133Z,15.53
2018-03-24T22:57:43.576Z,13.47
2018-03-24T23:00:11.011Z,15.63
2018-03-24T23:02:38.443Z,14.20
2018-03-24T23:05:05.884Z,13.47
2018-03-24T23:07:33.328Z,15.43
2018-03-24T23:10:00.765Z,13.67
2018-03-24T23:12:28.972Z,13.70
2018-03-24T23:14:56.479Z,16.10
2018-03-24T23:17:24.657Z,15.20
2018-03-24T23:19:52.091Z,13.67
2018-03-24T23:22:19.538Z,14.33
2018-03-24T23:24:47.039Z,13.97
2018-03-24T23:27:14.487Z,13.60
2018-03-24T23:29:41.923Z,15.80
2018-03-24T23:32:09.419Z,14.40
2018-03-24T23:34:37.556Z,14.90
2018-03-24T23:37:04.997Z,13.80
2018-03-24T23:39:33.201Z,14.33
2018-03-24T23:42:00.697Z,15.10
2018-03-24T23:44:28.135Z,13.17
2018-03-24T23:46:55.575Z,14.07
2018-03-24T23:49:23.044Z,12.03
2018-03-24T23:51:50.529Z,14.67
2018-03-24T23:54:17.972Z,14.10
2018-03-24T23:56:45.490Z,14.83
2018-03-24T23:59:12.896Z,14.93
